createdAt,value
2019-02-07T00:00:44.122Z,13.20
2019-02-07T00:01:42.850Z,13.10
2019-02-07T00:02:42.789Z,12.50
2019-02-07T00:03:42.784Z,12.50
2019-02-07T00:04:42.778Z,12.30
2019-02-07T00:05:42.779Z,12.50
2019-02-07T00:06:42.811Z,13.10
2019-02-07T00:07:42.764Z,12.90
2019-02-07T00:08:42.764Z,12.10
2019-02-07T00:10:43.898Z,13.20
2019-02-07T00:11:42.858Z,13.10
2019-02-07T00:12:42.728Z,12.40
2019-02-07T00:13:42.673Z,12.20
2019-02-07T00:14:42.662Z,12.70
2019-02-07T00:15:44.723Z,12.20
2019-02-07T00:16:45.642Z,12.60
2019-02-07T00:17:42.622Z,12.20
2019-02-07T00:18:42.609Z,12.70
2019-02-07T00:19:42.702Z,12.70
2019-02-07T00:20:42.600Z,12.90
2019-02-07T00:21:42.616Z,12.20
2019-02-07T00:23:44.470Z,12.20
2019-02-07T00:24:43.294Z,12.20
2019-02-07T00:25:42.552Z,12.20
2019-02-07T00:26:42.616Z,12.30
2019-02-07T00:27:42.566Z,12.90
2019-02-07T00:28:42.590Z,11.50
2019-02-07T00:29:42.536Z,12.70
2019-02-07T00:30:42.480Z,13.00
2019-02-07T00:31:42.554Z,11.70
2019-02-07T00:32:42.570Z,13.70
2019-02-07T00:33:42.498Z,12.70
2019-02-07T00:34:42.440Z,12.30
2019-02-07T00:35:42.528Z,12.70
2019-02-07T00:36:42.438Z,12.60
2019-02-07T00:38:45.494Z,11.80
2019-02-07T00:39:42.412Z,12.80
2019-02-07T00:40:42.428Z,12.10
2019-02-07T00:41:42.380Z,12.70
2019-02-07T00:42:42.386Z,12.20
2019-02-07T00:43:42.363Z,13.20
2019-02-07T00:44:50.443Z,12.80
2019-02-07T00:45:43.390Z,12.00
2019-02-07T00:46:42.367Z,12.50
2019-02-07T00:48:43.536Z,12.20
2019-02-07T00:50:03.284Z,11.80
2019-02-07T00:50:42.295Z,11.70
2019-02-07T00:51:42.333Z,11.10
2019-02-07T00:52:42.273Z,11.90
2019-02-07T00:53:42.280Z,11.70
2019-02-07T00:54:42.228Z,11.70
2019-02-07T00:55:42.239Z,11.10
2019-02-07T00:56:42.230Z,11.50
2019-02-07T00:57:42.243Z,11.40
2019-02-07T00:59:43.520Z,13.10
2019-02-07T01:01:03.174Z,11.30
2019-02-07T01:01:42.171Z,12.90
2019-02-07T01:02:45.038Z,12.00
2019-02-07T01:03:42.170Z,12.00
2019-02-07T01:04:42.153Z,12.00
2019-02-07T01:05:42.118Z,12.10
2019-02-07T01:06:42.136Z,12.10
2019-02-07T01:07:42.108Z,11.70
2019-02-07T01:08:42.114Z,12.00
2019-02-07T01:09:42.113Z,11.30
2019-02-07T01:10:42.070Z,12.90
2019-02-07T01:11:42.064Z,11.70
2019-02-07T01:12:42.069Z,12.00
2019-02-07T01:13:42.044Z,11.30
2019-02-07T01:14:45.156Z,11.20
2019-02-07T01:16:43.361Z,11.60
2019-02-07T01:18:43.365Z,12.20
2019-02-07T01:20:43.278Z,12.00
2019-02-07T01:22:02.960Z,12.10
2019-02-07T01:23:02.949Z,11.50
2019-02-07T01:23:41.942Z,11.30
2019-02-07T01:24:41.923Z,12.00
2019-02-07T01:25:41.958Z,11.50
2019-02-07T01:26:41.896Z,11.60
2019-02-07T01:27:41.910Z,11.80
2019-02-07T01:28:41.882Z,12.10
2019-02-07T01:30:42.979Z,12.10
2019-02-07T01:31:41.926Z,11.00
2019-02-07T01:32:41.834Z,11.50
2019-02-07T01:33:41.870Z,12.20
2019-02-07T01:34:41.814Z,11.20
2019-02-07T01:35:41.900Z,11.50
2019-02-07T01:36:41.806Z,11.70
2019-02-07T01:37:41.816Z,11.10
2019-02-07T01:38:41.782Z,11.80
2019-02-07T01:39:41.808Z,12.10
2019-02-07T01:40:41.753Z,11.60
2019-02-07T01:41:41.746Z,11.60
2019-02-07T01:42:41.778Z,10.80
2019-02-07T01:43:41.742Z,10.90
2019-02-07T01:44:41.717Z,11.60
2019-02-07T01:45:41.706Z,11.40
2019-02-07T01:46:41.720Z,12.00
2019-02-07T01:47:41.687Z,11.10
2019-02-07T01:48:41.700Z,10.80
2019-02-07T01:49:41.675Z,11.80
2019-02-07T01:50:41.663Z,11.40
2019-02-07T01:51:41.630Z,10.80
2019-02-07T01:52:41.660Z,11.10
2019-02-07T01:53:41.624Z,11.70
2019-02-07T01:54:41.619Z,10.50
2019-02-07T01:55:41.592Z,11.10
2019-02-07T01:56:41.580Z,11.50
2019-02-07T01:57:41.760Z,10.90
2019-02-07T01:58:41.581Z,11.40
2019-02-07T01:59:41.557Z,12.40
2019-02-07T02:00:41.564Z,11.20
2019-02-07T02:01:41.530Z,11.60
2019-02-07T02:02:43.668Z,10.70
2019-02-07T02:03:44.199Z,10.80
2019-02-07T02:04:41.582Z,11.90
2019-02-07T02:05:44.580Z,12.00
2019-02-07T02:06:41.516Z,11.20
2019-02-07T02:07:43.143Z,10.20
2019-02-07T02:08:44.476Z,11.00
2019-02-07T02:09:41.532Z,10.80
2019-02-07T02:10:41.499Z,12.00
2019-02-07T02:11:41.446Z,11.60
2019-02-07T02:12:41.478Z,11.30
2019-02-07T02:13:41.663Z,10.90
2019-02-07T02:14:41.461Z,11.50
2019-02-07T02:18:03.400Z,11.10
2019-02-07T02:18:41.381Z,11.80
2019-02-07T02:19:41.334Z,11.70
2019-02-07T02:20:41.332Z,12.00
2019-02-07T02:21:41.419Z,11.20
2019-02-07T02:22:45.430Z,10.90
2019-02-07T02:23:41.462Z,11.30
2019-02-07T02:24:41.382Z,11.80
2019-02-07T02:26:42.550Z,11.50
2019-02-07T02:27:41.346Z,10.80
2019-02-07T02:28:41.406Z,11.30
2019-02-07T02:30:42.528Z,11.10
2019-02-07T02:31:43.272Z,11.30
2019-02-07T02:34:19.784Z,10.60
2019-02-07T02:35:19.728Z,11.50
2019-02-07T02:36:19.711Z,11.40
2019-02-07T02:37:23.800Z,11.90
2019-02-07T02:38:19.788Z,11.40
2019-02-07T02:39:21.465Z,11.40
2019-02-07T02:40:19.682Z,11.00
2019-02-07T02:42:20.823Z,11.40
2019-02-07T02:43:19.975Z,11.40
2019-02-07T02:44:22.582Z,11.20
2019-02-07T02:45:19.637Z,11.60
2019-02-07T02:46:19.616Z,11.00
2019-02-07T02:47:19.669Z,11.30
2019-02-07T02:48:19.651Z,11.60
2019-02-07T02:50:20.786Z,11.40
2019-02-07T02:51:19.553Z,11.70
2019-02-07T02:52:27.908Z,10.60
2019-02-07T02:53:21.667Z,11.30
2019-02-07T02:54:21.599Z,11.00
2019-02-07T02:55:21.665Z,11.20
2019-02-07T02:56:19.593Z,11.80
2019-02-07T02:58:20.735Z,10.00
2019-02-07T02:59:19.527Z,10.10
2019-02-07T03:00:19.694Z,11.10
2019-02-07T03:03:20.654Z,11.10
2019-02-07T03:04:19.439Z,10.80
2019-02-07T03:06:20.425Z,11.80
2019-02-07T03:08:20.597Z,11.60
2019-02-07T03:09:19.371Z,11.10
2019-02-07T03:10:19.377Z,11.00
2019-02-07T03:12:20.587Z,11.30
2019-02-07T03:13:19.434Z,11.40
2019-02-07T03:14:19.377Z,12.20
2019-02-07T03:15:19.463Z,11.50
2019-02-07T03:16:21.353Z,11.10
2019-02-07T03:17:19.279Z,11.40
2019-02-07T03:18:19.353Z,11.10
2019-02-07T03:19:19.323Z,11.90
2019-02-07T03:20:19.286Z,10.10
2019-02-07T03:21:19.315Z,11.50
2019-02-07T03:22:23.361Z,11.20
2019-02-07T03:23:19.223Z,10.90
2019-02-07T03:24:19.223Z,11.10
2019-02-07T03:25:19.242Z,10.40
2019-02-07T03:26:19.192Z,11.10
2019-02-07T03:27:19.256Z,10.70
2019-02-07T03:28:23.255Z,10.70
2019-02-07T03:29:19.158Z,11.00
2019-02-07T03:30:19.186Z,10.70
2019-02-07T03:31:19.135Z,9.90
2019-02-07T03:32:19.220Z,11.70
2019-02-07T03:33:19.199Z,10.60
2019-02-07T03:35:20.375Z,11.20
2019-02-07T03:36:19.169Z,10.70
2019-02-07T03:37:19.158Z,10.30
2019-02-07T03:38:19.152Z,11.60
2019-02-07T03:39:19.145Z,10.40
2019-02-07T03:40:19.053Z,10.70
2019-02-07T03:41:19.069Z,11.00
2019-02-07T03:42:21.109Z,10.50
2019-02-07T03:43:19.091Z,10.40
2019-02-07T03:44:19.077Z,11.20
2019-02-07T03:45:18.991Z,10.20
2019-02-07T03:46:19.139Z,10.60
2019-02-07T03:47:23.079Z,10.40
2019-02-07T03:48:21.037Z,10.40
2019-02-07T03:49:21.029Z,10.80
2019-02-07T03:51:21.494Z,10.30
2019-02-07T03:52:18.970Z,10.90
2019-02-07T03:53:19.003Z,10.50
2019-02-07T03:54:18.989Z,10.30
2019-02-07T03:55:18.937Z,10.60
2019-02-07T03:57:20.087Z,10.10
2019-02-07T03:58:19.049Z,9.90
2019-02-07T03:59:18.848Z,10.80
2019-02-07T04:00:18.826Z,11.20
2019-02-07T04:01:18.872Z,10.30
2019-02-07T04:02:18.875Z,10.40
2019-02-07T04:03:18.847Z,9.40
2019-02-07T04:04:18.816Z,10.20
2019-02-07T04:05:22.885Z,10.50
2019-02-07T04:06:20.607Z,10.50
2019-02-07T04:07:18.816Z,10.80
2019-02-07T04:08:18.821Z,11.30
2019-02-07T04:09:18.741Z,10.60
2019-02-07T04:10:18.739Z,10.00
2019-02-07T04:11:18.752Z,10.30
2019-02-07T04:12:20.753Z,9.90
2019-02-07T04:13:18.753Z,10.10
2019-02-07T04:14:18.757Z,10.10
2019-02-07T04:15:18.671Z,11.10
2019-02-07T04:16:18.859Z,9.60
2019-02-07T04:17:18.733Z,9.50
2019-02-07T04:18:18.655Z,10.60
2019-02-07T04:19:18.615Z,10.00
2019-02-07T04:20:18.625Z,10.90
2019-02-07T04:21:18.629Z,10.20
2019-02-07T04:22:20.664Z,10.40
2019-02-07T04:23:18.656Z,10.30
2019-02-07T04:24:18.772Z,10.30
2019-02-07T04:25:18.635Z,10.50
2019-02-07T04:26:20.625Z,10.90
2019-02-07T04:27:18.731Z,10.20
2019-02-07T04:28:18.603Z,10.50
2019-02-07T04:29:18.592Z,10.30
2019-02-07T04:30:18.519Z,10.40
2019-02-07T04:31:18.486Z,10.40
2019-02-07T04:32:21.633Z,9.40
2019-02-07T04:33:18.572Z,10.50
2019-02-07T04:34:18.585Z,10.60
2019-02-07T04:36:19.936Z,9.20
2019-02-07T04:37:39.533Z,10.30
2019-02-07T04:38:18.428Z,10.20
2019-02-07T04:39:18.441Z,9.50
2019-02-07T04:40:18.421Z,10.30
2019-02-07T04:41:18.395Z,9.90
2019-02-07T04:43:21.369Z,10.60
2019-02-07T04:44:18.375Z,10.10
2019-02-07T04:45:18.353Z,10.30
2019-02-07T04:46:26.632Z,10.70
2019-02-07T04:47:21.203Z,11.10
2019-02-07T04:49:19.435Z,9.80
2019-02-07T04:50:18.332Z,10.10
2019-02-07T04:51:18.284Z,10.00
2019-02-07T04:52:18.542Z,10.30
2019-02-07T04:53:18.447Z,10.20
2019-02-07T04:55:19.473Z,10.10
2019-02-07T04:56:18.471Z,9.90
2019-02-07T04:57:18.342Z,10.20
2019-02-07T04:59:19.366Z,9.80
2019-02-07T05:00:18.435Z,10.30
2019-02-07T05:01:18.398Z,10.30
2019-02-07T05:02:39.189Z,10.30
2019-02-07T05:03:39.197Z,9.70
2019-02-07T05:04:39.245Z,9.90
2019-02-07T05:05:39.304Z,9.80
2019-02-07T05:06:20.145Z,11.10
2019-02-07T05:07:18.167Z,10.30
2019-02-07T05:08:20.137Z,10.50
2019-02-07T05:09:20.138Z,9.80
2019-02-07T05:10:18.075Z,9.70
2019-02-07T05:11:20.173Z,9.90
2019-02-07T05:13:19.929Z,9.80
2019-02-07T05:14:18.115Z,10.10
2019-02-07T05:15:18.107Z,9.90
2019-02-07T05:16:18.080Z,9.60
2019-02-07T05:18:19.259Z,9.70
2019-02-07T05:19:18.045Z,9.80
2019-02-07T05:20:18.009Z,10.00
2019-02-07T05:22:18.952Z,9.30
2019-02-07T05:23:17.961Z,9.90
2019-02-07T05:24:17.946Z,9.40
2019-02-07T05:25:17.929Z,9.30
2019-02-07T05:27:19.121Z,10.00
2019-02-07T05:28:40.624Z,10.00
2019-02-07T05:29:17.936Z,9.50
2019-02-07T05:30:17.916Z,9.10
2019-02-07T05:32:19.052Z,9.60
2019-02-07T05:33:39.007Z,9.20
2019-02-07T05:34:17.957Z,8.70
2019-02-07T05:36:19.020Z,9.20
2019-02-07T05:37:17.884Z,9.10
2019-02-07T05:38:26.992Z,9.40
2019-02-07T05:43:18.919Z,9.20
2019-02-07T05:45:18.953Z,9.40
2019-02-07T05:46:38.695Z,8.90
2019-02-07T05:48:18.909Z,9.30
2019-02-07T05:49:38.699Z,8.20
2019-02-07T05:50:17.662Z,9.20
2019-02-07T05:51:17.647Z,9.00
2019-02-07T05:52:17.716Z,8.90
2019-02-07T05:53:17.722Z,9.50
2019-02-07T05:54:19.520Z,9.60
2019-02-07T05:55:17.645Z,8.70
2019-02-07T05:56:17.644Z,8.90
2019-02-07T05:57:17.650Z,8.90
2019-02-07T05:58:17.557Z,8.80
2019-02-07T05:59:17.615Z,8.70
2019-02-07T06:00:17.614Z,8.70
2019-02-07T06:01:17.542Z,9.60
2019-02-07T06:02:17.611Z,9.30
2019-02-07T06:03:17.617Z,9.10
2019-02-07T06:04:17.599Z,9.20
2019-02-07T06:05:17.600Z,8.00
2019-02-07T06:06:17.507Z,8.60
2019-02-07T06:07:19.565Z,8.90
2019-02-07T06:08:19.547Z,9.40
2019-02-07T06:09:17.565Z,9.30
2019-02-07T06:10:17.577Z,8.60
2019-02-07T06:11:17.458Z,10.00
2019-02-07T06:12:21.525Z,9.60
2019-02-07T06:13:17.488Z,8.90
2019-02-07T06:14:17.467Z,9.70
2019-02-07T06:15:17.542Z,9.00
2019-02-07T06:16:17.404Z,9.40
2019-02-07T06:18:18.476Z,9.70
2019-02-07T06:19:17.398Z,9.60
2019-02-07T06:20:17.451Z,9.70
2019-02-07T06:21:17.348Z,9.50
2019-02-07T06:22:17.328Z,10.40
2019-02-07T06:23:17.400Z,8.50
2019-02-07T06:24:17.333Z,9.40
2019-02-07T06:26:18.543Z,8.70
2019-02-07T06:27:17.548Z,8.70
2019-02-07T06:28:17.534Z,8.60
2019-02-07T06:29:17.537Z,9.20
2019-02-07T06:30:17.527Z,9.70
2019-02-07T06:31:17.367Z,9.40
2019-02-07T06:32:17.285Z,9.00
2019-02-07T06:33:17.261Z,9.90
2019-02-07T06:34:28.392Z,8.80
2019-02-07T06:36:18.973Z,10.10
2019-02-07T06:37:17.227Z,10.00
2019-02-07T06:38:17.201Z,10.00
2019-02-07T06:40:18.393Z,9.50
2019-02-07T06:41:17.146Z,9.30
2019-02-07T06:42:17.217Z,9.50
2019-02-07T06:44:18.639Z,9.80
2019-02-07T06:45:17.072Z,9.80
2019-02-07T06:46:17.109Z,9.50
2019-02-07T06:47:17.187Z,10.30
2019-02-07T06:49:18.414Z,10.20
2019-02-07T06:50:17.090Z,9.60
2019-02-07T06:51:21.102Z,9.60
2019-02-07T06:52:18.680Z,9.80
2019-02-07T06:53:16.982Z,10.10
2019-02-07T06:54:17.065Z,9.70
2019-02-07T06:55:16.959Z,10.10
2019-02-07T06:56:17.027Z,9.40
2019-02-07T06:57:19.569Z,10.20
2019-02-07T06:58:16.950Z,9.30
2019-02-07T06:59:16.925Z,9.70
2019-02-07T07:00:16.918Z,10.30
2019-02-07T07:01:17.058Z,10.10
2019-02-07T07:02:16.937Z,11.00
2019-02-07T07:03:16.888Z,11.10
2019-02-07T07:04:17.155Z,11.10
2019-02-07T07:05:16.927Z,10.20
2019-02-07T07:06:16.916Z,10.40
2019-02-07T07:07:17.006Z,10.60
2019-02-07T07:08:16.832Z,10.10
2019-02-07T07:09:18.094Z,11.10
2019-02-07T07:10:16.798Z,10.60
2019-02-07T07:11:16.841Z,11.20
2019-02-07T07:12:16.920Z,11.20
2019-02-07T07:13:16.853Z,10.80
2019-02-07T07:14:18.810Z,10.00
2019-02-07T07:15:16.761Z,10.60
2019-02-07T07:16:16.740Z,11.80
2019-02-07T07:17:25.432Z,11.20
2019-02-07T07:18:17.951Z,11.80
2019-02-07T07:19:16.789Z,11.20
2019-02-07T07:20:16.774Z,10.90
2019-02-07T07:21:16.705Z,10.90
2019-02-07T07:22:16.739Z,12.00
2019-02-07T07:23:20.640Z,11.00
2019-02-07T07:24:16.723Z,11.50
2019-02-07T07:25:18.716Z,11.40
2019-02-07T07:26:16.700Z,11.30
2019-02-07T07:28:17.793Z,11.60
2019-02-07T07:29:16.686Z,11.70
2019-02-07T07:30:16.594Z,11.50
2019-02-07T07:32:17.798Z,10.70
2019-02-07T07:33:16.827Z,11.50
2019-02-07T07:34:16.622Z,10.60
2019-02-07T07:35:16.538Z,10.80
2019-02-07T07:36:16.533Z,10.70
2019-02-07T07:37:16.558Z,10.80
2019-02-07T07:38:16.685Z,11.20
2019-02-07T07:40:17.973Z,17.80
2019-02-07T07:41:16.470Z,12.80
2019-02-07T07:42:16.539Z,11.90
2019-02-07T07:43:16.497Z,11.10
2019-02-07T07:44:16.605Z,14.40
2019-02-07T07:45:16.514Z,13.10
2019-02-07T07:46:16.417Z,12.70
2019-02-07T07:47:16.460Z,11.90
2019-02-07T07:48:20.538Z,11.60
2019-02-07T07:49:16.548Z,12.60
2019-02-07T07:50:16.443Z,15.80
2019-02-07T07:51:19.456Z,12.00
2019-02-07T07:52:16.404Z,11.50
2019-02-07T07:53:16.428Z,11.80
2019-02-07T07:54:16.524Z,11.50
2019-02-07T07:57:17.550Z,11.10
2019-02-07T07:58:16.299Z,11.20
2019-02-07T08:00:19.112Z,10.90
2019-02-07T08:01:16.440Z,12.00
2019-02-07T08:02:16.262Z,11.90
2019-02-07T08:03:16.240Z,11.10
2019-02-07T08:04:16.406Z,12.20
2019-02-07T08:05:16.232Z,11.10
2019-02-07T08:06:18.218Z,11.70
2019-02-07T08:07:18.293Z,12.10
2019-02-07T08:08:16.341Z,11.60
2019-02-07T08:10:16.154Z,12.20
2019-02-07T08:11:16.157Z,12.50
2019-02-07T08:12:16.212Z,12.10
2019-02-07T08:14:17.401Z,11.80
2019-02-07T08:15:16.108Z,12.50
2019-02-07T08:16:16.091Z,11.90
2019-02-07T08:18:17.440Z,10.90
2019-02-07T08:19:16.094Z,12.80
2019-02-07T08:20:16.079Z,12.10
2019-02-07T08:22:17.247Z,12.20
2019-02-07T08:24:17.293Z,12.70
2019-02-07T08:25:16.049Z,12.70
2019-02-07T08:26:15.985Z,13.00
2019-02-07T08:27:16.062Z,12.40
2019-02-07T08:28:18.081Z,13.50
2019-02-07T08:29:16.087Z,12.90
2019-02-07T08:30:16.128Z,12.60
2019-02-07T08:31:16.020Z,13.30
2019-02-07T08:33:17.151Z,12.80
2019-02-07T08:34:15.971Z,13.00
2019-02-07T08:35:16.053Z,13.50
2019-02-07T08:38:17.112Z,12.70
2019-02-07T08:39:15.867Z,12.80
2019-02-07T08:41:17.121Z,13.20
2019-02-07T08:44:17.071Z,13.60
2019-02-07T08:45:38.676Z,13.00
2019-02-07T08:48:16.979Z,16.80
2019-02-07T08:50:18.547Z,15.30
2019-02-07T08:51:15.825Z,14.90
2019-02-07T08:54:16.976Z,12.70
2019-02-07T08:55:15.814Z,11.90
2019-02-07T08:56:19.713Z,11.70
2019-02-07T08:57:36.737Z,13.10
2019-02-07T08:58:15.662Z,12.30
2019-02-07T08:59:15.667Z,12.40
2019-02-07T09:00:15.677Z,12.70
2019-02-07T09:01:17.787Z,12.40
2019-02-07T09:03:16.939Z,11.70
2019-02-07T09:04:15.606Z,13.40
2019-02-07T09:05:15.578Z,12.40
2019-02-07T09:06:15.606Z,11.80
2019-02-07T09:07:17.681Z,13.00
2019-02-07T09:08:15.746Z,12.90
2019-02-07T09:09:23.698Z,12.90
2019-02-07T09:10:15.518Z,13.80
2019-02-07T09:11:15.549Z,13.30
2019-02-07T09:12:15.502Z,12.50
2019-02-07T09:13:15.554Z,12.50
2019-02-07T09:15:16.668Z,12.80
2019-02-07T09:16:15.516Z,12.80
2019-02-07T09:17:15.517Z,12.70
2019-02-07T09:20:16.677Z,12.90
2019-02-07T09:21:15.462Z,13.30
2019-02-07T09:22:15.441Z,13.30
2019-02-07T09:23:15.388Z,12.60
2019-02-07T09:24:15.409Z,12.80
2019-02-07T09:25:15.377Z,12.60
2019-02-07T09:27:16.505Z,12.70
2019-02-07T09:28:15.381Z,12.20
2019-02-07T09:29:15.409Z,12.90
2019-02-07T09:30:15.306Z,12.80
2019-02-07T09:31:15.298Z,12.80
2019-02-07T09:32:17.498Z,13.40
2019-02-07T09:33:19.400Z,13.20
2019-02-07T09:35:16.499Z,11.70
2019-02-07T09:36:15.258Z,13.40
2019-02-07T09:37:15.465Z,13.60
2019-02-07T09:38:17.299Z,13.30
2019-02-07T09:40:16.434Z,13.40
2019-02-07T09:41:15.224Z,12.90
2019-02-07T09:42:15.178Z,12.70
2019-02-07T09:43:17.208Z,12.20
2019-02-07T09:45:17.013Z,13.20
2019-02-07T09:46:36.136Z,13.00
2019-02-07T09:47:38.349Z,12.30
2019-02-07T09:48:21.783Z,12.50
2019-02-07T09:49:16.193Z,13.60
2019-02-07T09:50:15.198Z,12.40
2019-02-07T09:52:16.273Z,12.90
2019-02-07T09:53:23.745Z,12.40
2019-02-07T09:54:16.083Z,14.20
2019-02-07T09:56:16.025Z,13.70
2019-02-07T09:57:15.033Z,12.80
2019-02-07T09:58:23.474Z,12.30
2019-02-07T09:59:15.552Z,12.30
2019-02-07T10:00:14.978Z,12.60
2019-02-07T10:03:16.039Z,12.60
2019-02-07T10:04:15.007Z,12.70
2019-02-07T10:06:18.105Z,12.40
2019-02-07T10:07:14.992Z,12.60
2019-02-07T10:10:16.030Z,12.00
2019-02-07T10:11:14.887Z,12.70
2019-02-07T10:12:16.953Z,12.50
2019-02-07T10:14:17.603Z,12.40
2019-02-07T10:15:14.829Z,12.40
2019-02-07T10:16:14.911Z,12.30
2019-02-07T10:17:17.875Z,12.30
2019-02-07T10:18:14.823Z,12.40
2019-02-07T10:20:16.093Z,12.30
2019-02-07T10:21:14.823Z,12.70
2019-02-07T10:24:16.058Z,13.40
2019-02-07T10:25:35.738Z,12.50
2019-02-07T10:26:14.746Z,14.20
2019-02-07T10:27:16.849Z,12.70
2019-02-07T10:28:14.764Z,13.30
2019-02-07T10:29:14.873Z,13.40
2019-02-07T10:31:15.907Z,13.50
2019-02-07T10:33:15.855Z,13.00
2019-02-07T10:35:22.611Z,12.00
2019-02-07T10:36:15.602Z,12.50
2019-02-07T10:37:14.641Z,13.50
2019-02-07T10:39:15.820Z,13.00
2019-02-07T10:40:14.609Z,12.30
2019-02-07T10:41:14.561Z,11.80
2019-02-07T10:42:14.623Z,11.60
2019-02-07T10:43:16.611Z,11.70
2019-02-07T10:45:15.782Z,12.20
2019-02-07T10:46:14.597Z,11.90
2019-02-07T10:47:16.574Z,12.00
2019-02-07T10:48:15.541Z,11.80
2019-02-07T10:49:15.536Z,11.70
2019-02-07T10:50:14.472Z,11.80
2019-02-07T10:51:14.469Z,12.80
2019-02-07T10:52:16.507Z,12.80
2019-02-07T10:53:14.495Z,11.70
2019-02-07T10:54:14.497Z,12.40
2019-02-07T10:55:14.462Z,12.40
2019-02-07T10:56:18.165Z,11.50
2019-02-07T10:57:14.411Z,11.00
2019-02-07T10:58:14.427Z,11.40
2019-02-07T11:00:15.629Z,12.20
2019-02-07T11:01:14.435Z,11.60
2019-02-07T11:03:15.726Z,10.20
2019-02-07T11:04:35.299Z,11.10
2019-02-07T11:05:14.364Z,10.60
2019-02-07T11:06:17.094Z,11.60
2019-02-07T11:07:16.305Z,11.40
2019-02-07T11:08:14.339Z,10.80
2019-02-07T11:10:15.531Z,10.30
2019-02-07T11:11:14.255Z,10.60
2019-02-07T11:12:16.279Z,11.90
2019-02-07T11:15:17.174Z,11.00
2019-02-07T11:16:14.195Z,11.10
2019-02-07T11:18:15.391Z,10.60
2019-02-07T11:19:35.126Z,10.70
2019-02-07T11:22:15.345Z,11.70
2019-02-07T11:23:16.163Z,10.20
2019-02-07T11:25:15.336Z,10.40
2019-02-07T11:26:14.069Z,9.90
2019-02-07T11:27:14.175Z,10.30
2019-02-07T11:30:15.227Z,10.00
2019-02-07T11:31:14.201Z,10.60
2019-02-07T11:33:16.045Z,9.80
2019-02-07T11:34:13.975Z,9.00
2019-02-07T11:35:13.974Z,9.80
2019-02-07T11:37:15.059Z,9.80
2019-02-07T11:38:13.956Z,8.30
2019-02-07T11:39:14.013Z,8.50
2019-02-07T11:40:16.016Z,8.50
2019-02-07T11:41:13.911Z,7.60
2019-02-07T11:42:13.925Z,7.90
2019-02-07T11:43:16.589Z,7.90
2019-02-07T11:44:13.906Z,8.10
2019-02-07T11:45:13.923Z,8.20
2019-02-07T11:46:13.895Z,8.70
2019-02-07T11:47:15.899Z,7.20
2019-02-07T11:48:16.615Z,8.60
2019-02-07T11:49:13.842Z,7.10
2019-02-07T11:50:13.792Z,7.10
2019-02-07T11:51:13.793Z,7.80
2019-02-07T11:52:13.863Z,6.80
2019-02-07T11:53:16.814Z,8.40
2019-02-07T11:54:13.845Z,8.00
2019-02-07T11:55:13.779Z,9.10
2019-02-07T11:56:13.763Z,8.80
2019-02-07T11:57:13.791Z,8.00
2019-02-07T11:58:13.867Z,8.60
2019-02-07T11:59:15.794Z,8.70
2019-02-07T12:00:13.802Z,8.30
2019-02-07T12:01:13.749Z,8.20
2019-02-07T12:02:13.707Z,7.80
2019-02-07T12:03:13.756Z,8.50
2019-02-07T12:04:13.643Z,8.50
2019-02-07T12:05:13.630Z,8.10
2019-02-07T12:06:13.631Z,8.40
2019-02-07T12:07:13.677Z,8.40
2019-02-07T12:08:13.645Z,8.90
2019-02-07T12:09:13.605Z,6.80
2019-02-07T12:10:13.592Z,7.70
2019-02-07T12:11:21.828Z,8.70
2019-02-07T12:12:13.631Z,8.50
2019-02-07T12:13:13.584Z,10.50
2019-02-07T12:14:13.624Z,9.30
2019-02-07T12:15:13.602Z,9.40
2019-02-07T12:17:16.506Z,9.20
2019-02-07T12:18:13.549Z,9.80
2019-02-07T12:19:18.007Z,11.00
2019-02-07T12:21:14.681Z,10.60
2019-02-07T12:22:13.527Z,10.70
2019-02-07T12:23:13.478Z,9.70
2019-02-07T12:24:15.504Z,9.60
2019-02-07T12:25:13.455Z,9.20
2019-02-07T12:26:13.419Z,8.80
2019-02-07T12:27:16.409Z,8.80
2019-02-07T12:28:13.432Z,8.80
2019-02-07T12:29:13.401Z,9.20
2019-02-07T12:30:13.401Z,9.50
2019-02-07T12:31:15.413Z,9.40
2019-02-07T12:32:15.381Z,10.10
2019-02-07T12:33:13.411Z,9.40
2019-02-07T12:35:14.617Z,9.40
2019-02-07T12:36:34.318Z,8.20
2019-02-07T12:37:13.349Z,8.60
2019-02-07T12:38:15.351Z,9.30
2019-02-07T12:39:15.257Z,8.80
2019-02-07T12:40:13.348Z,9.40
2019-02-07T12:42:14.458Z,12.40
2019-02-07T12:43:13.229Z,11.20
2019-02-07T12:44:13.260Z,10.00
2019-02-07T12:45:13.213Z,8.80
2019-02-07T12:46:13.228Z,8.70
2019-02-07T12:47:17.299Z,8.60
2019-02-07T12:49:14.382Z,9.60
2019-02-07T12:50:13.158Z,9.60
2019-02-07T12:51:13.230Z,9.40
2019-02-07T12:52:21.451Z,9.40
2019-02-07T12:53:13.205Z,8.90
2019-02-07T12:54:13.343Z,9.30
2019-02-07T12:55:16.748Z,9.00
2019-02-07T12:56:29.620Z,9.10
2019-02-07T12:57:13.136Z,9.50
2019-02-07T12:58:17.185Z,9.40
2019-02-07T12:59:13.116Z,9.10
2019-02-07T13:00:23.052Z,7.80
2019-02-07T13:01:13.197Z,9.40
2019-02-07T13:02:14.071Z,9.00
2019-02-07T13:03:13.026Z,9.50
2019-02-07T13:05:14.096Z,9.30
2019-02-07T13:06:12.984Z,8.60
2019-02-07T13:07:13.041Z,8.90
2019-02-07T13:09:14.062Z,9.00
2019-02-07T13:10:12.972Z,10.00
2019-02-07T13:11:12.948Z,9.50
2019-02-07T13:14:14.229Z,9.00
2019-02-07T13:15:12.915Z,9.20
2019-02-07T13:16:12.936Z,9.00
2019-02-07T13:17:12.930Z,8.60
2019-02-07T13:19:14.100Z,9.30
2019-02-07T13:20:12.934Z,9.40
2019-02-07T13:21:12.886Z,9.50
2019-02-07T13:23:14.066Z,9.80
2019-02-07T13:24:12.813Z,9.10
2019-02-07T13:25:12.811Z,9.10
2019-02-07T13:26:12.775Z,9.20
2019-02-07T13:27:12.762Z,9.80
2019-02-07T13:30:14.048Z,9.40
2019-02-07T13:31:12.723Z,8.90
2019-02-07T13:32:20.993Z,9.50
2019-02-07T13:36:34.742Z,9.20
2019-02-07T13:37:16.764Z,8.70
2019-02-07T13:38:14.811Z,9.30
2019-02-07T13:39:12.685Z,8.50
2019-02-07T13:40:35.748Z,9.20
2019-02-07T13:42:13.764Z,8.80
2019-02-07T13:43:12.632Z,8.60
2019-02-07T13:45:15.186Z,8.50
2019-02-07T13:47:13.767Z,8.40
2019-02-07T13:48:12.736Z,9.00
2019-02-07T13:49:12.524Z,8.90
2019-02-07T13:51:13.759Z,9.20
2019-02-07T13:52:12.610Z,8.40
2019-02-07T13:53:12.469Z,8.60
2019-02-07T13:54:12.463Z,8.70
2019-02-07T13:55:12.460Z,9.50
2019-02-07T13:56:12.477Z,8.10
2019-02-07T14:03:13.604Z,9.40
2019-02-07T14:04:12.451Z,9.20
2019-02-07T14:06:13.571Z,8.80
2019-02-07T14:07:39.740Z,9.10
2019-02-07T14:08:12.385Z,9.60
2019-02-07T14:09:12.401Z,9.10
2019-02-07T14:10:12.392Z,9.40
2019-02-07T14:11:12.358Z,9.70
2019-02-07T14:12:15.285Z,9.00
2019-02-07T14:13:12.280Z,9.70
2019-02-07T14:14:12.247Z,9.20
2019-02-07T14:15:12.231Z,9.10
2019-02-07T14:16:12.254Z,9.30
2019-02-07T14:17:12.479Z,9.00
2019-02-07T14:20:13.624Z,8.60
2019-02-07T14:21:12.166Z,9.60
2019-02-07T14:22:16.278Z,9.30
2019-02-07T14:23:13.325Z,9.80
2019-02-07T14:24:14.208Z,9.70
2019-02-07T14:25:12.204Z,10.00
2019-02-07T14:26:12.125Z,9.90
2019-02-07T14:27:12.180Z,10.10
2019-02-07T14:28:12.133Z,8.70
2019-02-07T14:29:12.178Z,8.30
2019-02-07T14:30:16.165Z,9.90
2019-02-07T14:31:12.171Z,9.50
2019-02-07T14:33:13.379Z,9.90
2019-02-07T14:34:12.044Z,10.20
2019-02-07T14:35:12.023Z,9.60
2019-02-07T14:36:12.074Z,9.40
2019-02-07T14:37:11.994Z,9.40
2019-02-07T14:38:12.050Z,8.20
2019-02-07T14:41:13.083Z,8.60
2019-02-07T14:42:20.067Z,8.40
2019-02-07T14:43:12.016Z,9.20
2019-02-07T14:44:11.957Z,9.30
2019-02-07T14:45:12.017Z,7.20
2019-02-07T14:48:14.778Z,8.80
2019-02-07T14:49:11.874Z,9.00
2019-02-07T14:51:13.515Z,8.60
2019-02-07T14:52:11.844Z,9.30
2019-02-07T14:53:11.882Z,9.20
2019-02-07T14:55:13.084Z,8.90
2019-02-07T14:56:11.796Z,9.40
2019-02-07T14:57:11.778Z,10.20
2019-02-07T14:58:18.764Z,9.20
2019-02-07T14:59:11.837Z,9.60
2019-02-07T15:00:11.764Z,9.40
2019-02-07T15:01:11.732Z,9.70
2019-02-07T15:02:11.808Z,9.80
2019-02-07T15:03:11.809Z,8.80
2019-02-07T15:04:13.678Z,7.80
2019-02-07T15:05:11.721Z,9.10
2019-02-07T15:06:11.682Z,8.70
2019-02-07T15:07:28.328Z,8.70
2019-02-07T15:09:15.579Z,8.90
2019-02-07T15:10:11.688Z,7.80
2019-02-07T15:11:11.715Z,8.10
2019-02-07T15:13:16.731Z,8.00
2019-02-07T15:14:11.685Z,8.90
2019-02-07T15:15:11.634Z,8.60
2019-02-07T15:16:13.683Z,9.00
2019-02-07T15:17:13.656Z,8.90
2019-02-07T15:18:11.548Z,8.50
2019-02-07T15:19:15.725Z,8.60
2019-02-07T15:20:13.674Z,8.40
2019-02-07T15:21:11.546Z,8.50
2019-02-07T15:22:11.530Z,8.80
2019-02-07T15:23:13.730Z,9.10
2019-02-07T15:24:23.986Z,8.90
2019-02-07T15:25:28.133Z,7.30
2019-02-07T15:26:19.779Z,9.10
2019-02-07T15:27:11.492Z,9.00